createdAt,value
2022-10-14T00:00:05.638Z,1003.80
2022-10-14T00:05:05.640Z,1003.74
2022-10-14T00:10:05.604Z,1003.76
2022-10-14T00:15:05.500Z,1003.81
2022-10-14T00:20:05.401Z,1003.74
2022-10-14T00:25:05.325Z,1003.77
2022-10-14T00:30:06.012Z,1003.76
2022-10-14T00:35:05.190Z,1003.70
2022-10-14T00:40:05.142Z,1003.73
2022-10-14T00:45:05.063Z,1003.75
2022-10-14T00:50:05.044Z,1003.76
2022-10-14T00:55:05.113Z,1003.71
2022-10-14T01:00:04.837Z,1003.61
2022-10-14T01:05:04.799Z,1003.70
2022-10-14T01:10:04.773Z,1003.62
2022-10-14T01:15:04.653Z,1003.71
2022-10-14T01:20:04.584Z,1003.66
2022-10-14T01:25:04.565Z,1003.60
2022-10-14T01:30:04.471Z,1003.66
2022-10-14T01:35:04.363Z,1003.60
2022-10-14T01:40:11.407Z,1003.59
2022-10-14T01:45:04.215Z,1003.55
2022-10-14T01:50:04.162Z,1003.49
2022-10-14T01:55:04.090Z,1003.46
2022-10-14T02:00:04.437Z,1003.41
2022-10-14T02:05:03.967Z,1003.43
2022-10-14T02:10:03.867Z,1003.35
2022-10-14T02:15:03.924Z,1003.25
2022-10-14T02:20:03.855Z,1003.25
2022-10-14T02:25:03.730Z,1003.24
2022-10-14T02:30:03.710Z,1003.30
2022-10-14T02:35:03.705Z,1003.31
2022-10-14T02:40:03.552Z,1003.24
2022-10-14T02:45:03.456Z,1003.16
2022-10-14T02:50:03.366Z,1003.09
2022-10-14T02:55:03.370Z,1003.25
2022-10-14T03:00:03.249Z,1003.13
2022-10-14T03:05:03.198Z,1003.14
2022-10-14T03:10:03.085Z,1003.17
2022-10-14T03:15:03.094Z,1003.06
2022-10-14T03:20:02.992Z,1003.09
2022-10-14T03:25:02.956Z,1002.98
2022-10-14T03:30:02.859Z,1003.10
2022-10-14T03:35:02.796Z,1003.14
2022-10-14T03:40:02.830Z,1002.99
2022-10-14T03:45:02.630Z,1003.01
2022-10-14T03:50:02.554Z,1003.03
2022-10-14T03:55:02.570Z,1003.04
2022-10-14T04:00:02.488Z,1002.97
2022-10-14T04:05:02.379Z,1002.95
2022-10-14T04:10:02.502Z,1002.91
2022-10-14T04:15:02.209Z,1002.84
2022-10-14T04:20:02.147Z,1002.82
2022-10-14T04:25:02.079Z,1002.71
2022-10-14T04:30:02.009Z,1002.72
2022-10-14T04:35:01.943Z,1002.66
2022-10-14T04:40:01.882Z,1002.77
2022-10-14T04:45:01.812Z,1002.80
2022-10-14T04:50:01.745Z,1002.69
2022-10-14T04:55:02.421Z,1002.79
2022-10-14T05:00:01.693Z,1002.71
2022-10-14T05:05:01.621Z,1002.65
2022-10-14T05:10:01.485Z,1002.62
2022-10-14T05:15:09.064Z,1002.63
2022-10-14T05:20:01.336Z,1002.63
2022-10-14T05:25:01.264Z,1002.60
2022-10-14T05:30:01.245Z,1002.57
2022-10-14T05:35:01.138Z,1002.67
2022-10-14T05:40:01.117Z,1002.61
2022-10-14T05:45:01.025Z,1002.61
2022-10-14T05:50:00.984Z,1002.64
2022-10-14T05:55:00.870Z,1002.64
2022-10-14T06:00:00.820Z,1002.61
2022-10-14T06:05:00.778Z,1002.70
2022-10-14T06:10:00.684Z,1002.66
2022-10-14T06:15:00.601Z,1002.72
2022-10-14T06:20:00.544Z,1002.73
2022-10-14T06:25:04.241Z,1002.67
2022-10-14T06:30:00.416Z,1002.75
2022-10-14T06:35:00.358Z,1002.72
2022-10-14T06:40:00.296Z,1002.65
2022-10-14T06:45:00.216Z,1002.70
2022-10-14T06:50:00.157Z,1002.69
2022-10-14T06:55:00.091Z,1002.75
2022-10-14T06:59:59.998Z,1002.75
2022-10-14T07:04:59.928Z,1002.72
2022-10-14T07:09:59.859Z,1002.77
2022-10-14T07:14:59.818Z,1002.79
2022-10-14T07:19:59.717Z,1002.77
2022-10-14T07:24:59.716Z,1002.78
2022-10-14T07:29:59.585Z,1002.73
2022-10-14T07:34:59.512Z,1002.85
2022-10-14T07:39:59.451Z,1002.84
2022-10-14T07:44:59.384Z,1002.86
2022-10-14T07:49:59.326Z,1002.80
2022-10-14T07:54:59.304Z,1002.84
2022-10-14T07:59:59.203Z,1002.87
2022-10-14T08:05:18.805Z,1002.88
2022-10-14T08:10:00.051Z,1002.87
2022-10-14T08:14:59.013Z,1002.92
2022-10-14T08:19:58.921Z,1002.83
2022-10-14T08:24:58.852Z,1002.89
2022-10-14T08:29:58.808Z,1002.87
2022-10-14T08:34:58.720Z,1002.81
2022-10-14T08:39:58.651Z,1002.81
2022-10-14T08:44:58.562Z,1002.79
2022-10-14T08:49:58.547Z,1002.79
2022-10-14T08:54:58.457Z,1002.74
2022-10-14T08:59:58.378Z,1002.77
2022-10-14T09:04:58.345Z,1002.76
2022-10-14T09:09:58.248Z,1002.74
2022-10-14T09:14:58.178Z,1002.66
2022-10-14T09:19:58.153Z,1002.62
2022-10-14T09:24:58.085Z,1002.59
2022-10-14T09:29:57.983Z,1002.66
2022-10-14T09:34:57.942Z,1002.53
2022-10-14T09:39:57.836Z,1002.55
2022-10-14T09:44:57.798Z,1002.61
2022-10-14T09:49:57.738Z,1002.54
2022-10-14T09:54:57.645Z,1002.56
2022-10-14T09:59:57.583Z,1002.47
2022-10-14T10:04:57.519Z,1002.41
2022-10-14T10:09:57.459Z,1002.43
2022-10-14T10:14:57.369Z,1002.22
2022-10-14T10:19:57.298Z,1002.19
2022-10-14T10:24:57.229Z,1002.17
2022-10-14T10:29:57.160Z,1002.15
2022-10-14T10:34:57.119Z,1002.10
2022-10-14T10:39:57.141Z,1002.10
2022-10-14T10:44:56.979Z,1002.05
2022-10-14T10:54:56.885Z,1001.96
2022-10-14T10:59:56.753Z,1001.99
2022-10-14T11:04:56.713Z,1001.93
2022-10-14T11:09:56.623Z,1001.92
2022-10-14T11:14:56.603Z,1001.90
2022-10-14T11:19:56.494Z,1001.91
2022-10-14T11:24:56.426Z,1001.80
2022-10-14T11:29:56.357Z,1001.90
2022-10-14T11:34:56.288Z,1001.82
2022-10-14T11:39:56.225Z,1001.80
2022-10-14T11:44:56.197Z,1001.59
2022-10-14T11:49:56.193Z,1001.57
2022-10-14T11:54:56.038Z,1001.61
2022-10-14T11:59:55.963Z,1001.51
2022-10-14T12:04:55.878Z,1001.40
2022-10-14T12:09:59.095Z,1001.46
2022-10-14T12:14:55.764Z,1001.30
2022-10-14T12:19:55.684Z,1001.28
2022-10-14T12:25:02.749Z,1001.17
2022-10-14T12:29:55.542Z,1001.31
2022-10-14T12:34:55.470Z,1001.17
2022-10-14T12:39:55.412Z,1001.23
2022-10-14T12:44:55.364Z,1001.13
2022-10-14T12:49:55.472Z,1001.16
2022-10-14T12:54:55.221Z,1001.03
2022-10-14T12:59:55.143Z,1000.96
2022-10-14T13:04:55.111Z,1001.01
2022-10-14T13:09:55.044Z,1001.00
2022-10-14T13:14:54.953Z,1000.95
2022-10-14T13:19:54.884Z,1000.84
2022-10-14T13:24:54.828Z,1000.80
2022-10-14T13:29:54.828Z,1000.77
2022-10-14T13:34:54.792Z,1000.79
2022-10-14T13:39:54.633Z,1000.71
2022-10-14T13:44:54.561Z,1000.66
2022-10-14T13:49:54.488Z,1000.62
2022-10-14T13:54:54.586Z,1000.53
2022-10-14T14:04:55.279Z,1000.51
2022-10-14T14:09:54.220Z,1000.50
2022-10-14T14:14:54.158Z,1000.46
2022-10-14T14:19:54.095Z,1000.39
2022-10-14T14:24:54.012Z,1000.43
2022-10-14T14:29:53.941Z,1000.43
2022-10-14T14:39:53.829Z,1000.35
2022-10-14T14:44:53.788Z,1000.27
2022-10-14T14:50:01.566Z,1000.19
2022-10-14T14:54:54.748Z,1000.09
2022-10-14T14:59:53.586Z,999.97
2022-10-14T15:04:53.517Z,999.99
2022-10-14T15:09:53.461Z,999.97
2022-10-14T15:14:53.458Z,999.95
2022-10-14T15:19:53.305Z,999.94
2022-10-14T15:24:53.291Z,999.92
2022-10-14T15:29:53.149Z,999.92
2022-10-14T15:34:53.105Z,999.89
2022-10-14T15:39:53.016Z,999.94
2022-10-14T15:44:53.008Z,1000.00
2022-10-14T15:49:53.030Z,999.95
2022-10-14T15:54:52.818Z,999.91
2022-10-14T15:59:52.941Z,999.92
2022-10-14T16:05:21.296Z,999.88
2022-10-14T16:09:53.601Z,999.91
2022-10-14T16:14:52.599Z,999.88
2022-10-14T16:19:52.482Z,999.86
2022-10-14T16:24:52.401Z,999.77
2022-10-14T16:29:52.350Z,999.85
2022-10-14T16:34:52.287Z,999.71
2022-10-14T16:39:52.224Z,999.78
2022-10-14T16:44:52.204Z,999.78
2022-10-14T16:49:52.107Z,999.69
2022-10-14T16:54:52.048Z,999.66
2022-10-14T16:59:51.952Z,999.62
2022-10-14T17:04:51.897Z,999.71
2022-10-14T17:09:51.849Z,999.63
2022-10-14T17:14:55.735Z,999.85
2022-10-14T17:19:51.676Z,999.76
2022-10-14T17:24:51.597Z,999.82
2022-10-14T17:29:51.588Z,999.85
2022-10-14T17:34:53.474Z,999.84
2022-10-14T17:39:51.454Z,999.87
2022-10-14T17:44:51.365Z,999.80
2022-10-14T17:49:51.275Z,999.87
2022-10-14T17:54:51.214Z,999.91
2022-10-14T17:59:51.244Z,999.82
2022-10-14T18:04:51.068Z,999.76
2022-10-14T18:09:51.186Z,999.78
2022-10-14T18:14:50.944Z,999.70
2022-10-14T18:19:52.424Z,999.65
2022-10-14T18:24:50.866Z,999.71
2022-10-14T18:29:50.720Z,999.64
2022-10-14T18:34:50.651Z,999.60
2022-10-14T18:39:50.618Z,999.50
2022-10-14T18:44:50.545Z,999.37
2022-10-14T18:49:50.451Z,999.39
2022-10-14T18:54:50.402Z,999.26
2022-10-14T18:59:50.333Z,999.37
2022-10-14T19:04:50.266Z,999.34
2022-10-14T19:09:51.914Z,999.28
2022-10-14T19:14:50.132Z,999.16
2022-10-14T19:19:50.071Z,999.21
2022-10-14T19:24:50.000Z,999.23
2022-10-14T19:29:49.889Z,999.17
2022-10-14T19:34:49.877Z,999.13
2022-10-14T19:39:49.777Z,999.07
2022-10-14T19:44:49.685Z,998.95
2022-10-14T19:49:56.721Z,998.79
2022-10-14T19:54:49.531Z,998.81
2022-10-14T19:59:49.475Z,998.80
2022-10-14T20:04:49.411Z,998.50
2022-10-14T20:09:49.386Z,998.58
2022-10-14T20:14:49.279Z,998.44
2022-10-14T20:19:49.241Z,998.42
2022-10-14T20:24:49.153Z,998.39
2022-10-14T20:29:49.063Z,998.37
2022-10-14T20:34:48.995Z,998.14
2022-10-14T20:39:48.985Z,998.27
2022-10-14T20:44:48.892Z,998.25
2022-10-14T20:49:48.822Z,998.27
2022-10-14T20:54:48.765Z,998.20
2022-10-14T20:59:48.665Z,998.09
2022-10-14T21:04:48.605Z,998.06
2022-10-14T21:09:48.577Z,998.06
2022-10-14T21:14:48.495Z,998.01
2022-10-14T21:19:48.433Z,997.96
2022-10-14T21:24:48.538Z,997.94
2022-10-14T21:29:48.306Z,997.94
2022-10-14T21:34:48.345Z,997.83
2022-10-14T21:39:48.197Z,997.83
2022-10-14T21:44:48.183Z,997.77
2022-10-14T21:49:48.060Z,997.67
2022-10-14T21:54:48.258Z,997.51
2022-10-14T21:59:47.911Z,997.38
2022-10-14T22:04:47.844Z,997.45
2022-10-14T22:09:47.860Z,997.43
2022-10-14T22:14:47.767Z,997.35
2022-10-14T22:19:47.636Z,997.41
2022-10-14T22:24:47.582Z,997.26
2022-10-14T22:29:47.665Z,997.19
2022-10-14T22:34:47.425Z,997.07
2022-10-14T22:39:47.356Z,997.12
2022-10-14T22:44:47.284Z,997.04
2022-10-14T22:49:47.226Z,997.03
2022-10-14T22:54:47.136Z,997.02
2022-10-14T22:59:47.117Z,997.08
2022-10-14T23:04:47.016Z,996.96
2022-10-14T23:09:47.012Z,996.88
2022-10-14T23:14:46.883Z,996.84
2022-10-14T23:19:46.829Z,996.89
2022-10-14T23:24:46.758Z,996.91
2022-10-14T23:29:46.680Z,996.69
2022-10-14T23:34:54.270Z,996.67
2022-10-14T23:39:46.529Z,996.70
2022-10-14T23:44:46.486Z,996.65
2022-10-14T23:49:46.409Z,996.51
2022-10-14T23:54:46.442Z,996.43
2022-10-14T23:59:46.396Z,996.59
